createdAt,value
2022-11-09T00:00:14.800Z,10.31
2022-11-09T00:03:03.738Z,10.39
2022-11-09T00:08:42.057Z,10.24
2022-11-09T00:14:19.623Z,10.20
2022-11-09T00:19:50.867Z,10.12
2022-11-09T00:22:38.926Z,10.07
2022-11-09T00:25:29.312Z,10.02
2022-11-09T00:28:17.497Z,10.06
2022-11-09T00:31:07.878Z,9.99
2022-11-09T00:33:58.675Z,9.90
2022-11-09T00:39:28.615Z,9.81
2022-11-09T00:45:04.366Z,9.90
2022-11-09T00:50:31.603Z,10.01
2022-11-09T00:53:20.321Z,9.98
2022-11-09T00:56:12.110Z,10.04
2022-11-09T00:59:01.155Z,10.08
2022-11-09T01:04:42.253Z,9.94
2022-11-09T01:10:13.485Z,9.80
2022-11-09T01:13:02.698Z,9.76
2022-11-09T01:15:53.085Z,9.67
2022-11-09T01:21:29.257Z,9.49
2022-11-09T01:24:17.475Z,9.44
2022-11-09T01:27:06.239Z,9.28
2022-11-09T01:32:38.377Z,9.43
2022-11-09T01:35:26.575Z,9.34
2022-11-09T01:38:16.046Z,9.33
2022-11-09T01:43:44.190Z,9.58
2022-11-09T01:49:31.918Z,9.85
2022-11-09T01:55:06.066Z,10.11
2022-11-09T01:57:56.518Z,10.18
2022-11-09T02:00:47.424Z,10.25
2022-11-09T02:09:08.228Z,10.42
2022-11-09T02:11:57.411Z,10.46
2022-11-09T02:17:37.759Z,10.31
2022-11-09T02:23:13.635Z,10.35
2022-11-09T02:28:52.194Z,10.47
2022-11-09T02:31:42.848Z,10.49
2022-11-09T02:37:30.049Z,10.55
2022-11-09T02:40:32.799Z,10.49
2022-11-09T02:46:11.947Z,10.62
2022-11-09T02:51:50.517Z,10.59
2022-11-09T02:57:26.873Z,10.57
2022-11-09T03:03:03.117Z,10.54
2022-11-09T03:05:51.494Z,10.39
2022-11-09T03:08:39.717Z,10.48
2022-11-09T03:14:16.355Z,10.46
2022-11-09T03:22:46.762Z,10.61
2022-11-09T03:25:34.987Z,10.60
2022-11-09T03:31:13.692Z,10.76
2022-11-09T03:36:45.281Z,10.82
2022-11-09T03:42:21.669Z,10.81
2022-11-09T03:48:01.143Z,10.77
2022-11-09T03:53:40.164Z,10.80
2022-11-09T03:56:29.452Z,10.74
2022-11-09T04:02:05.897Z,10.83
2022-11-09T04:04:54.132Z,10.78
2022-11-09T04:07:49.304Z,10.83
2022-11-09T04:13:29.384Z,10.86
2022-11-09T04:16:17.897Z,10.75
2022-11-09T04:19:06.256Z,10.57
2022-11-09T04:21:54.739Z,10.46
2022-11-09T04:24:42.950Z,10.11
2022-11-09T04:30:13.183Z,9.78
2022-11-09T04:35:49.693Z,9.94
2022-11-09T04:38:38.307Z,10.17
2022-11-09T04:41:28.846Z,10.19
2022-11-09T04:58:09.024Z,10.74
2022-11-09T05:00:59.830Z,10.69
2022-11-09T05:06:49.047Z,11.16
2022-11-09T05:15:09.144Z,11.18
2022-11-09T05:20:38.594Z,11.21
2022-11-09T05:26:07.884Z,11.07
2022-11-09T05:34:20.545Z,10.85
2022-11-09T05:37:11.927Z,10.75
2022-11-09T05:40:00.644Z,10.66
2022-11-09T05:45:43.292Z,10.82
2022-11-09T05:51:17.975Z,10.80
2022-11-09T05:56:55.155Z,10.85
2022-11-09T06:02:25.791Z,10.69
2022-11-09T06:08:05.925Z,10.73
2022-11-09T06:11:01.170Z,10.62
2022-11-09T06:16:45.263Z,10.88
2022-11-09T06:19:34.374Z,10.68
2022-11-09T06:25:08.560Z,10.69
2022-11-09T06:30:40.135Z,10.81
2022-11-09T06:36:19.151Z,10.92
2022-11-09T06:41:58.348Z,10.96
2022-11-09T06:47:32.982Z,11.00
2022-11-09T06:50:21.441Z,10.98
2022-11-09T06:55:54.317Z,10.97
2022-11-09T07:01:27.022Z,11.00
2022-11-09T07:04:16.283Z,10.87
2022-11-09T07:07:05.531Z,10.89
2022-11-09T07:09:53.389Z,10.95
2022-11-09T07:18:18.919Z,11.28
2022-11-09T07:24:06.055Z,11.37
2022-11-09T07:29:41.749Z,11.36
2022-11-09T07:35:20.405Z,11.43
2022-11-09T07:38:09.039Z,11.38
2022-11-09T07:46:52.659Z,11.42
2022-11-09T07:52:27.457Z,11.65
2022-11-09T08:00:50.994Z,11.84
2022-11-09T08:06:44.934Z,12.09
2022-11-09T08:12:19.412Z,12.24
2022-11-09T08:20:37.189Z,12.54
2022-11-09T08:29:03.248Z,12.97
2022-11-09T08:34:39.439Z,13.18
2022-11-09T08:40:12.579Z,13.22
2022-11-09T08:43:04.304Z,13.14
2022-11-09T08:48:44.022Z,13.09
2022-11-09T08:54:15.060Z,13.11
2022-11-09T08:59:47.453Z,13.04
2022-11-09T09:05:24.862Z,13.05
2022-11-09T09:13:43.291Z,13.12
2022-11-09T09:19:21.227Z,13.21
2022-11-09T09:22:09.066Z,13.20
2022-11-09T09:30:40.964Z,13.54
2022-11-09T09:36:31.422Z,13.62
2022-11-09T09:42:33.862Z,13.47
2022-11-09T09:45:25.370Z,13.42
2022-11-09T09:51:10.289Z,13.30
2022-11-09T09:54:02.026Z,13.19
2022-11-09T09:56:52.043Z,13.25
2022-11-09T10:02:31.561Z,13.25
2022-11-09T10:05:23.856Z,13.24
2022-11-09T10:14:04.275Z,13.34
2022-11-09T10:19:43.158Z,13.39
2022-11-09T10:25:43.370Z,13.44
2022-11-09T10:30:59.073Z,13.53
2022-11-09T10:36:44.201Z,13.57
2022-11-09T10:39:38.955Z,13.49
2022-11-09T10:45:20.203Z,13.44
2022-11-09T10:51:01.106Z,13.30
2022-11-09T10:53:50.743Z,13.24
2022-11-09T11:08:32.744Z,13.33
2022-11-09T11:14:18.469Z,13.47
2022-11-09T11:19:52.085Z,13.50
2022-11-09T11:22:43.734Z,13.49
2022-11-09T11:28:27.756Z,13.57
2022-11-09T11:34:04.857Z,13.62
2022-11-09T11:39:56.223Z,13.74
2022-11-09T11:43:23.789Z,13.49
2022-11-09T11:52:09.304Z,13.35
2022-11-09T11:58:05.861Z,13.41
2022-11-09T12:13:49.811Z,13.72
2022-11-09T12:16:50.616Z,13.82
2022-11-09T12:22:47.332Z,13.92
2022-11-09T12:29:16.301Z,13.79
2022-11-09T12:33:00.519Z,13.69
2022-11-09T12:40:03.748Z,13.53
2022-11-09T12:50:27.221Z,13.31
2022-11-09T12:53:34.085Z,13.17
2022-11-09T12:59:56.879Z,13.18
2022-11-09T13:06:08.111Z,13.20
2022-11-09T13:09:12.758Z,13.02
2022-11-09T13:15:02.001Z,13.05
2022-11-09T13:21:01.302Z,12.93
2022-11-09T13:24:10.451Z,12.83
2022-11-09T13:27:06.383Z,12.84
2022-11-09T13:29:58.054Z,12.75
2022-11-09T13:33:15.662Z,12.65
2022-11-09T13:39:32.495Z,12.60
2022-11-09T13:42:39.315Z,12.41
2022-11-09T13:48:30.615Z,12.36
2022-11-09T13:51:20.792Z,12.33
2022-11-09T13:54:33.678Z,12.13
2022-11-09T13:57:25.465Z,12.35
2022-11-09T14:00:24.177Z,12.28
2022-11-09T14:06:26.165Z,12.39
2022-11-09T14:12:41.287Z,12.33
2022-11-09T14:31:45.941Z,12.39
2022-11-09T14:37:31.550Z,12.36
2022-11-09T14:46:18.345Z,12.27
2022-11-09T14:51:55.062Z,12.19
2022-11-09T14:57:29.373Z,12.16
2022-11-09T15:03:33.889Z,12.04
2022-11-09T15:09:30.774Z,12.00
2022-11-09T15:12:29.380Z,11.90
2022-11-09T15:18:32.806Z,11.98
2022-11-09T15:21:29.030Z,11.80
2022-11-09T15:31:04.372Z,11.97
2022-11-09T15:36:55.468Z,11.80
2022-11-09T15:40:26.878Z,11.71
2022-11-09T15:43:17.611Z,11.74
2022-11-09T15:46:08.572Z,11.74
2022-11-09T15:49:01.086Z,11.69
2022-11-09T15:54:47.006Z,11.87
2022-11-09T16:00:21.197Z,11.87
2022-11-09T16:06:34.017Z,11.90
2022-11-09T16:09:26.359Z,11.83
2022-11-09T16:12:15.950Z,11.86
2022-11-09T16:23:40.150Z,11.84
2022-11-09T16:26:33.472Z,11.86
2022-11-09T16:32:15.452Z,11.91
2022-11-09T16:37:50.837Z,11.72
2022-11-09T16:43:31.783Z,11.64
2022-11-09T16:49:10.096Z,11.56
2022-11-09T16:54:47.689Z,11.62
2022-11-09T16:57:41.783Z,11.54
2022-11-09T17:03:22.150Z,11.58
2022-11-09T17:06:17.382Z,11.68
2022-11-09T17:09:07.044Z,11.65
2022-11-09T17:14:44.084Z,11.74
2022-11-09T17:17:32.776Z,11.63
2022-11-09T17:23:24.238Z,11.70
2022-11-09T17:29:02.114Z,11.75
2022-11-09T17:34:55.336Z,11.80
2022-11-09T17:40:31.765Z,11.67
2022-11-09T17:46:15.680Z,11.63
2022-11-09T17:51:51.333Z,11.71
2022-11-09T18:06:26.859Z,11.68
2022-11-09T18:09:40.206Z,11.61
2022-11-09T18:15:08.256Z,11.83
2022-11-09T18:20:52.220Z,11.82
2022-11-09T18:26:21.976Z,11.62
2022-11-09T18:32:16.549Z,11.67
2022-11-09T18:35:06.923Z,11.68
2022-11-09T18:40:53.003Z,11.89
2022-11-09T18:46:22.471Z,11.78
2022-11-09T18:49:14.270Z,11.79
2022-11-09T19:00:44.469Z,11.80
2022-11-09T19:03:41.704Z,11.75
2022-11-09T19:09:33.808Z,11.79
2022-11-09T19:12:25.243Z,11.64
2022-11-09T19:18:28.319Z,11.67
2022-11-09T19:21:56.813Z,11.49
2022-11-09T20:00:46.754Z,11.75
2022-11-09T20:03:49.243Z,11.72
2022-11-09T20:09:26.378Z,11.70
2022-11-09T20:15:12.874Z,11.52
2022-11-09T20:18:02.133Z,11.39
2022-11-09T20:24:17.014Z,11.42
2022-11-09T20:30:48.999Z,11.45
2022-11-09T20:39:18.115Z,11.45
2022-11-09T20:42:06.451Z,11.34
2022-11-09T20:48:03.300Z,11.52
2022-11-09T20:53:24.018Z,11.61
2022-11-09T21:01:54.400Z,11.61
2022-11-09T21:07:44.510Z,11.64
2022-11-09T21:13:18.225Z,11.70
2022-11-09T21:18:48.900Z,11.62
2022-11-09T21:24:36.720Z,11.67
2022-11-09T21:30:19.258Z,11.70
2022-11-09T21:35:48.672Z,11.58
2022-11-09T21:38:37.326Z,11.54
2022-11-09T21:44:24.401Z,11.64
2022-11-09T21:50:00.137Z,11.55
2022-11-09T21:52:48.414Z,11.57
2022-11-09T21:55:37.197Z,11.47
2022-11-09T22:01:12.818Z,11.67
2022-11-09T22:06:43.557Z,11.48
2022-11-09T22:10:08.394Z,11.57
2022-11-09T22:12:50.590Z,11.61
2022-11-09T22:15:58.287Z,11.65
2022-11-09T22:21:39.373Z,11.74
2022-11-09T22:27:16.894Z,11.73
2022-11-09T22:30:06.521Z,11.71
2022-11-09T22:35:42.662Z,11.81
2022-11-09T22:44:03.386Z,11.83
2022-11-09T22:46:51.719Z,11.83
2022-11-09T22:52:23.444Z,11.89
2022-11-09T22:57:57.062Z,11.86
2022-11-09T23:03:34.064Z,11.84
2022-11-09T23:09:12.070Z,11.82
2022-11-09T23:15:06.153Z,11.79
2022-11-09T23:23:22.539Z,11.92
2022-11-09T23:26:11.964Z,11.85
2022-11-09T23:31:42.376Z,11.82
2022-11-09T23:37:26.591Z,11.81
2022-11-09T23:43:05.200Z,11.88
2022-11-09T23:45:53.739Z,11.89
2022-11-09T23:54:14.431Z,11.62
2022-11-09T23:59:45.210Z,11.80
